createdAt,value
2022-08-28T00:01:21.719Z,20.87
2022-08-28T00:04:27.469Z,20.93
2022-08-28T00:07:32.758Z,20.97
2022-08-28T00:10:40.083Z,20.91
2022-08-28T00:13:47.433Z,20.97
2022-08-28T00:16:52.861Z,20.85
2022-08-28T00:19:58.182Z,20.90
2022-08-28T00:23:04.790Z,20.87
2022-08-28T00:26:34.775Z,20.89
2022-08-28T00:29:41.487Z,20.80
2022-08-28T00:32:46.850Z,20.76
2022-08-28T00:35:53.069Z,20.70
2022-08-28T00:39:00.129Z,20.68
2022-08-28T00:42:06.193Z,20.70
2022-08-28T00:45:15.365Z,20.75
2022-08-28T00:48:21.402Z,20.77
2022-08-28T00:51:59.394Z,20.60
2022-08-28T00:55:10.367Z,20.65
2022-08-28T00:58:16.157Z,20.70
2022-08-28T01:01:22.924Z,20.68
2022-08-28T01:04:32.301Z,20.59
2022-08-28T01:07:39.525Z,20.61
2022-08-28T01:10:49.661Z,20.53
2022-08-28T01:13:56.912Z,20.50
2022-08-28T01:17:09.771Z,20.49
2022-08-28T01:20:21.150Z,20.47
2022-08-28T01:23:46.886Z,20.40
2022-08-28T01:26:52.472Z,20.40
2022-08-28T01:29:58.696Z,20.39
2022-08-28T01:33:04.413Z,20.30
2022-08-28T01:36:12.655Z,20.26
2022-08-28T01:39:24.411Z,20.35
2022-08-28T01:42:30.740Z,20.30
2022-08-28T01:45:37.702Z,20.22
2022-08-28T01:48:44.563Z,20.10
2022-08-28T01:51:50.585Z,20.07
2022-08-28T01:54:59.122Z,20.14
2022-08-28T01:58:08.680Z,20.09
2022-08-28T02:01:16.596Z,20.11
2022-08-28T02:04:27.558Z,20.00
2022-08-28T02:07:39.198Z,20.03
2022-08-28T02:10:47.159Z,20.09
2022-08-28T02:13:54.324Z,20.03
2022-08-28T02:17:01.584Z,19.97
2022-08-28T02:20:08.719Z,19.86
2022-08-28T02:23:16.599Z,19.81
2022-08-28T02:26:23.716Z,19.95
2022-08-28T02:29:29.454Z,19.90
2022-08-28T02:32:35.154Z,19.75
2022-08-28T02:35:41.566Z,19.72
2022-08-28T02:38:47.457Z,19.77
2022-08-28T02:41:54.249Z,19.62
2022-08-28T02:44:59.824Z,19.61
2022-08-28T02:48:05.586Z,19.69
2022-08-28T02:51:22.913Z,19.68
2022-08-28T02:54:28.447Z,19.64
2022-08-28T02:57:35.378Z,19.46
2022-08-28T03:00:41.490Z,19.55
2022-08-28T03:03:47.282Z,19.64
2022-08-28T03:06:52.590Z,19.44
2022-08-28T03:09:58.127Z,19.48
2022-08-28T03:13:06.044Z,19.44
2022-08-28T03:16:12.724Z,19.48
2022-08-28T03:19:18.282Z,19.41
2022-08-28T03:22:43.946Z,19.42
2022-08-28T03:25:52.130Z,19.46
2022-08-28T03:28:59.684Z,19.46
2022-08-28T03:32:06.291Z,19.37
2022-08-28T03:35:13.147Z,19.44
2022-08-28T03:38:19.142Z,19.38
2022-08-28T03:41:29.105Z,19.43
2022-08-28T03:44:36.820Z,19.37
2022-08-28T03:47:43.278Z,19.32
2022-08-28T03:50:49.051Z,19.41
2022-08-28T03:53:54.722Z,19.45
2022-08-28T03:57:00.462Z,19.35
2022-08-28T04:00:11.033Z,19.40
2022-08-28T04:03:20.256Z,19.39
2022-08-28T04:06:25.869Z,19.41
2022-08-28T04:09:31.200Z,19.35
2022-08-28T04:12:37.186Z,19.40
2022-08-28T04:15:44.278Z,19.42
2022-08-28T04:18:51.344Z,19.36
2022-08-28T04:21:56.683Z,19.38
2022-08-28T04:25:02.312Z,19.41
2022-08-28T04:28:07.770Z,19.36
2022-08-28T04:31:15.262Z,19.44
2022-08-28T04:34:20.994Z,19.46
2022-08-28T04:37:27.877Z,19.39
2022-08-28T04:40:33.386Z,19.36
2022-08-28T04:43:39.193Z,19.49
2022-08-28T04:46:48.301Z,19.49
2022-08-28T04:49:54.298Z,19.67
2022-08-28T04:52:59.881Z,19.60
2022-08-28T04:56:09.070Z,19.65
2022-08-28T04:59:14.905Z,19.73
2022-08-28T05:02:21.875Z,19.74
2022-08-28T05:05:27.178Z,19.75
2022-08-28T05:08:32.443Z,19.85
2022-08-28T05:11:38.019Z,19.80
2022-08-28T05:14:43.544Z,19.79
2022-08-28T05:17:50.258Z,19.70
2022-08-28T05:20:55.579Z,19.77
2022-08-28T05:24:00.927Z,19.77
2022-08-28T05:27:06.810Z,19.67
2022-08-28T05:30:14.799Z,19.62
2022-08-28T05:33:22.182Z,19.71
2022-08-28T05:36:32.507Z,19.78
2022-08-28T05:39:38.518Z,19.71
2022-08-28T05:42:44.502Z,19.81
2022-08-28T05:46:00.179Z,19.90
2022-08-28T05:49:10.285Z,19.92
2022-08-28T05:52:16.577Z,19.97
2022-08-28T05:55:22.103Z,20.03
2022-08-28T05:58:31.283Z,19.96
2022-08-28T06:01:39.805Z,20.05
2022-08-28T06:04:49.026Z,20.14
2022-08-28T06:07:54.535Z,20.05
2022-08-28T06:11:00.860Z,20.09
2022-08-28T06:14:10.951Z,20.16
2022-08-28T06:17:16.766Z,20.15
2022-08-28T06:20:30.447Z,20.27
2022-08-28T06:23:36.219Z,20.20
2022-08-28T06:26:41.750Z,20.21
2022-08-28T06:29:47.362Z,20.23
2022-08-28T06:32:52.612Z,20.21
2022-08-28T06:35:59.353Z,20.32
2022-08-28T06:39:06.991Z,20.31
2022-08-28T06:42:12.998Z,20.31
2022-08-28T06:45:19.141Z,20.26
2022-08-28T06:48:27.421Z,20.15
2022-08-28T06:51:34.800Z,20.27
2022-08-28T06:54:40.469Z,20.32
2022-08-28T06:58:00.678Z,20.40
2022-08-28T07:01:10.466Z,20.36
2022-08-28T07:04:17.467Z,20.44
2022-08-28T07:07:32.356Z,20.34
2022-08-28T07:10:38.190Z,20.28
2022-08-28T07:13:44.216Z,20.34
2022-08-28T07:16:49.846Z,20.41
2022-08-28T07:19:57.243Z,20.47
2022-08-28T07:23:03.831Z,20.48
2022-08-28T07:26:13.309Z,20.46
2022-08-28T07:29:19.211Z,20.59
2022-08-28T07:32:25.229Z,20.68
2022-08-28T07:35:30.557Z,20.75
2022-08-28T07:38:37.478Z,20.72
2022-08-28T07:41:43.772Z,20.75
2022-08-28T07:44:50.982Z,20.85
2022-08-28T07:47:56.630Z,20.83
2022-08-28T07:51:01.961Z,20.60
2022-08-28T07:54:10.190Z,20.61
2022-08-28T07:57:21.469Z,20.40
2022-08-28T08:00:28.198Z,20.48
2022-08-28T08:03:33.728Z,20.51
2022-08-28T08:06:40.647Z,20.71
2022-08-28T08:09:47.742Z,20.57
2022-08-28T08:12:55.318Z,20.70
2022-08-28T08:16:07.252Z,20.68
2022-08-28T08:19:15.102Z,20.70
2022-08-28T08:22:20.811Z,20.63
2022-08-28T08:25:27.942Z,20.64
2022-08-28T08:28:37.305Z,20.74
2022-08-28T08:31:44.093Z,20.70
2022-08-28T08:34:49.839Z,20.72
2022-08-28T08:37:55.048Z,20.71
2022-08-28T08:41:07.050Z,20.57
2022-08-28T08:44:33.256Z,20.66
2022-08-28T08:47:45.140Z,20.66
2022-08-28T08:50:50.585Z,20.63
2022-08-28T08:54:02.402Z,20.45
2022-08-28T08:57:12.001Z,20.51
2022-08-28T09:00:18.890Z,20.58
2022-08-28T09:03:28.014Z,20.69
2022-08-28T09:06:43.519Z,20.73
2022-08-28T09:09:53.147Z,20.73
2022-08-28T09:13:13.487Z,20.58
2022-08-28T09:16:28.144Z,20.52
2022-08-28T09:19:33.748Z,20.36
2022-08-28T09:22:41.604Z,20.46
2022-08-28T09:25:53.586Z,20.30
2022-08-28T09:29:06.505Z,20.26
2022-08-28T09:32:22.886Z,20.29
2022-08-28T09:35:31.115Z,20.19
2022-08-28T09:38:36.752Z,20.30
2022-08-28T09:42:08.783Z,20.24
2022-08-28T09:45:21.195Z,20.18
2022-08-28T09:48:34.670Z,20.21
2022-08-28T09:51:40.169Z,20.20
2022-08-28T09:54:46.819Z,20.10
2022-08-28T09:57:52.202Z,19.98
2022-08-28T10:01:11.199Z,19.93
2022-08-28T10:04:47.653Z,19.95
2022-08-28T10:07:56.543Z,19.87
2022-08-28T10:11:12.106Z,19.88
2022-08-28T10:14:43.954Z,19.87
2022-08-28T10:18:12.224Z,19.85
2022-08-28T10:21:24.813Z,19.79
2022-08-28T10:24:48.909Z,19.85
2022-08-28T10:28:22.323Z,19.76
2022-08-28T10:31:36.238Z,19.69
2022-08-28T10:34:54.398Z,19.64
2022-08-28T10:38:08.483Z,19.67
2022-08-28T10:41:19.571Z,19.56
2022-08-28T10:44:31.869Z,19.60
2022-08-28T10:47:41.912Z,19.56
2022-08-28T10:50:51.871Z,19.54
2022-08-28T10:54:03.606Z,19.54
2022-08-28T10:57:20.229Z,19.56
2022-08-28T11:00:28.598Z,19.56
2022-08-28T11:03:46.407Z,19.64
2022-08-28T11:06:56.364Z,19.71
2022-08-28T11:10:19.364Z,19.54
2022-08-28T11:13:51.156Z,19.47
2022-08-28T11:17:00.045Z,19.55
2022-08-28T11:20:15.461Z,19.58
2022-08-28T11:23:38.425Z,19.47
2022-08-28T11:27:05.582Z,19.42
2022-08-28T11:30:34.600Z,19.37
2022-08-28T11:33:42.545Z,19.36
2022-08-28T11:37:03.153Z,19.26
2022-08-28T11:40:58.014Z,19.07
2022-08-28T11:44:42.989Z,19.18
2022-08-28T11:47:56.691Z,19.22
2022-08-28T11:51:06.961Z,19.22
2022-08-28T11:54:37.592Z,19.17
2022-08-28T12:01:10.029Z,18.96
2022-08-28T12:04:18.181Z,19.06
2022-08-28T12:07:24.755Z,19.03
2022-08-28T12:10:59.218Z,19.04
2022-08-28T12:14:06.091Z,18.84
2022-08-28T12:17:30.518Z,18.80
2022-08-28T12:20:48.733Z,18.81
2022-08-28T12:24:09.840Z,18.82
2022-08-28T12:27:18.983Z,18.84
2022-08-28T12:30:40.424Z,18.79
2022-08-28T12:33:51.961Z,18.77
2022-08-28T12:36:59.022Z,18.76
2022-08-28T12:40:15.408Z,18.77
2022-08-28T12:43:41.682Z,18.59
2022-08-28T12:46:53.180Z,18.53
2022-08-28T12:49:58.577Z,18.40
2022-08-28T12:53:07.590Z,18.32
2022-08-28T12:56:18.714Z,18.22
2022-08-28T12:59:27.349Z,18.13
2022-08-28T13:02:35.305Z,18.01
2022-08-28T13:05:41.270Z,17.81
2022-08-28T13:08:50.142Z,17.63
2022-08-28T13:11:55.612Z,17.49
2022-08-28T13:15:01.249Z,17.52
2022-08-28T13:18:08.906Z,17.57
2022-08-28T13:21:34.995Z,17.55
2022-08-28T13:24:45.696Z,17.46
2022-08-28T13:28:02.970Z,17.37
2022-08-28T13:31:32.458Z,17.16
2022-08-28T13:34:45.543Z,17.16
2022-08-28T13:37:55.635Z,16.92
2022-08-28T13:41:05.544Z,16.55
2022-08-28T13:44:11.375Z,16.69
2022-08-28T13:47:18.575Z,16.68
2022-08-28T13:50:24.185Z,16.45
2022-08-28T13:53:29.510Z,16.52
2022-08-28T13:56:37.598Z,16.20
2022-08-28T13:59:43.091Z,16.13
2022-08-28T14:03:07.389Z,16.05
2022-08-28T14:06:16.844Z,16.05
2022-08-28T14:09:22.229Z,16.12
2022-08-28T14:12:33.382Z,16.02
2022-08-28T14:15:39.187Z,15.97
2022-08-28T14:18:45.862Z,15.82
2022-08-28T14:21:51.660Z,15.95
2022-08-28T14:24:57.610Z,15.98
2022-08-28T14:28:03.280Z,16.02
2022-08-28T14:31:13.717Z,16.04
2022-08-28T14:34:23.806Z,16.04
2022-08-28T14:37:29.230Z,16.01
2022-08-28T14:40:38.197Z,15.95
2022-08-28T14:43:43.550Z,15.92
2022-08-28T14:46:50.437Z,15.91
2022-08-28T14:49:57.141Z,15.61
2022-08-28T14:53:02.540Z,15.96
2022-08-28T14:56:09.048Z,15.90
2022-08-28T14:59:23.640Z,15.84
2022-08-28T15:02:29.587Z,15.76
2022-08-28T15:05:36.432Z,15.59
2022-08-28T15:08:41.782Z,15.63
2022-08-28T15:11:47.741Z,15.74
2022-08-28T15:14:57.176Z,15.68
2022-08-28T15:18:03.014Z,15.61
2022-08-28T15:21:17.191Z,15.51
2022-08-28T15:24:25.551Z,15.56
2022-08-28T15:27:30.651Z,15.49
2022-08-28T15:30:36.779Z,15.41
2022-08-28T15:33:45.392Z,15.59
2022-08-28T15:36:56.023Z,15.33
2022-08-28T15:40:19.142Z,15.34
2022-08-28T15:43:24.499Z,15.18
2022-08-28T15:46:33.579Z,15.29
2022-08-28T15:49:46.859Z,15.20
2022-08-28T15:52:56.993Z,15.26
2022-08-28T15:56:04.872Z,15.29
2022-08-28T15:59:10.665Z,15.31
2022-08-28T16:02:16.464Z,15.34
2022-08-28T16:05:22.493Z,15.43
2022-08-28T16:08:29.618Z,15.31
2022-08-28T16:11:35.014Z,15.15
2022-08-28T16:14:44.374Z,15.32
2022-08-28T16:17:50.095Z,15.25
2022-08-28T16:20:55.461Z,15.00
2022-08-28T16:24:02.190Z,15.01
2022-08-28T16:27:13.134Z,15.00
2022-08-28T16:30:21.091Z,15.10
2022-08-28T16:33:30.436Z,15.10
2022-08-28T16:36:37.009Z,15.00
2022-08-28T16:39:43.983Z,14.95
2022-08-28T16:42:51.641Z,15.00
2022-08-28T16:45:57.448Z,14.95
2022-08-28T16:49:02.844Z,14.97
2022-08-28T16:52:08.414Z,14.95
2022-08-28T16:55:15.610Z,14.79
2022-08-28T16:58:21.341Z,14.78
2022-08-28T17:01:27.499Z,14.69
2022-08-28T17:04:33.239Z,14.81
2022-08-28T17:07:39.820Z,14.70
2022-08-28T17:10:46.578Z,14.76
2022-08-28T17:13:52.111Z,14.70
2022-08-28T17:16:57.428Z,14.54
2022-08-28T17:20:02.958Z,14.50
2022-08-28T17:23:08.179Z,14.44
2022-08-28T17:26:15.356Z,14.53
2022-08-28T17:29:20.925Z,14.32
2022-08-28T17:32:26.738Z,14.46
2022-08-28T17:35:32.089Z,14.55
2022-08-28T17:38:47.450Z,14.47
2022-08-28T17:41:54.078Z,14.47
2022-08-28T17:44:59.622Z,14.40
2022-08-28T17:48:05.921Z,14.41
2022-08-28T17:51:11.952Z,14.31
2022-08-28T17:54:21.544Z,14.34
2022-08-28T17:57:30.531Z,14.27
2022-08-28T18:00:35.812Z,14.29
2022-08-28T18:03:43.947Z,14.22
2022-08-28T18:06:58.820Z,14.23
2022-08-28T18:10:04.969Z,14.23
2022-08-28T18:13:15.058Z,14.22
2022-08-28T18:16:20.737Z,14.25
2022-08-28T18:19:26.125Z,14.13
2022-08-28T18:22:31.480Z,14.16
2022-08-28T18:25:44.882Z,14.06
2022-08-28T18:28:57.531Z,14.15
2022-08-28T18:32:03.787Z,14.14
2022-08-28T18:35:09.960Z,14.05
2022-08-28T18:38:16.385Z,14.07
2022-08-28T18:41:22.166Z,14.09
2022-08-28T18:44:37.848Z,14.13
2022-08-28T18:47:43.479Z,14.11
2022-08-28T18:50:49.885Z,14.14
2022-08-28T18:53:56.414Z,13.96
2022-08-28T18:57:04.492Z,14.01
2022-08-28T19:00:15.785Z,13.95
2022-08-28T19:03:21.210Z,14.01
2022-08-28T19:06:26.814Z,13.99
2022-08-28T19:09:34.887Z,13.92
2022-08-28T19:12:41.880Z,14.00
2022-08-28T19:15:52.807Z,13.86
2022-08-28T19:18:59.523Z,14.06
2022-08-28T19:22:07.354Z,13.96
2022-08-28T19:25:27.853Z,13.98
2022-08-28T19:28:36.424Z,13.93
2022-08-28T19:31:44.136Z,13.96
2022-08-28T19:34:56.109Z,13.82
2022-08-28T19:38:01.577Z,13.89
2022-08-28T19:41:08.334Z,13.92
2022-08-28T19:44:13.921Z,13.96
2022-08-28T19:47:20.915Z,14.00
2022-08-28T19:50:26.876Z,14.00
2022-08-28T19:53:32.814Z,14.04
2022-08-28T19:56:38.207Z,13.99
2022-08-28T19:59:43.586Z,14.03
2022-08-28T20:02:53.242Z,14.03
2022-08-28T20:06:03.633Z,14.07
2022-08-28T20:09:12.670Z,14.11
2022-08-28T20:12:18.610Z,14.10
2022-08-28T20:15:24.110Z,14.01
2022-08-28T20:18:30.781Z,14.06
2022-08-28T20:21:37.011Z,14.07
2022-08-28T20:24:43.550Z,14.11
2022-08-28T20:27:48.827Z,14.15
2022-08-28T20:30:54.163Z,14.15
2022-08-28T20:34:01.107Z,14.32
2022-08-28T20:37:06.947Z,14.33
2022-08-28T20:40:16.499Z,14.18
2022-08-28T20:43:21.934Z,14.31
2022-08-28T20:46:27.300Z,14.38
2022-08-28T20:49:34.213Z,14.26
2022-08-28T20:52:44.835Z,14.27
2022-08-28T20:55:50.346Z,14.30
2022-08-28T20:58:55.909Z,14.15
2022-08-28T21:02:01.615Z,14.27
2022-08-28T21:05:09.589Z,14.24
2022-08-28T21:08:16.924Z,14.30
2022-08-28T21:11:22.263Z,14.27
2022-08-28T21:14:28.133Z,14.32
2022-08-28T21:17:33.924Z,14.38
2022-08-28T21:20:40.720Z,14.30
2022-08-28T21:23:46.106Z,14.32
2022-08-28T21:26:52.549Z,14.29
2022-08-28T21:29:58.975Z,14.34
2022-08-28T21:33:05.434Z,14.31
2022-08-28T21:36:17.210Z,14.37
2022-08-28T21:39:23.030Z,14.35
2022-08-28T21:42:29.041Z,14.37
2022-08-28T21:45:34.437Z,14.44
2022-08-28T21:48:40.411Z,14.36
2022-08-28T21:51:47.499Z,14.30
2022-08-28T21:54:59.080Z,14.30
2022-08-28T21:58:04.339Z,14.30
2022-08-28T22:01:14.152Z,14.34
2022-08-28T22:04:19.570Z,14.37
2022-08-28T22:07:26.429Z,14.31
2022-08-28T22:10:32.357Z,14.29
2022-08-28T22:13:37.779Z,14.32
2022-08-28T22:16:43.279Z,14.30
2022-08-28T22:19:48.697Z,14.31
2022-08-28T22:23:12.715Z,14.32
2022-08-28T22:26:21.167Z,14.31
2022-08-28T22:29:26.819Z,14.31
2022-08-28T22:32:32.272Z,14.39
2022-08-28T22:35:38.294Z,14.44
2022-08-28T22:38:50.487Z,14.53
2022-08-28T22:41:59.114Z,14.60
2022-08-28T22:45:05.179Z,14.65
2022-08-28T22:48:16.550Z,14.64
2022-08-28T22:51:21.819Z,14.68
2022-08-28T22:54:28.827Z,14.71
2022-08-28T22:57:34.174Z,14.67
2022-08-28T23:00:41.734Z,14.68
2022-08-28T23:03:47.256Z,14.66
2022-08-28T23:06:52.808Z,14.68
2022-08-28T23:10:00.046Z,14.66
2022-08-28T23:13:05.439Z,14.70
2022-08-28T23:16:13.102Z,14.73
2022-08-28T23:19:19.450Z,14.73
2022-08-28T23:22:25.081Z,14.71
2022-08-28T23:25:31.730Z,14.72
2022-08-28T23:28:37.006Z,14.69
2022-08-28T23:31:42.384Z,14.67
2022-08-28T23:34:48.247Z,14.64
2022-08-28T23:37:53.702Z,14.64
2022-08-28T23:41:00.506Z,14.67
2022-08-28T23:44:09.029Z,14.69
2022-08-28T23:47:15.364Z,14.71
2022-08-28T23:50:24.219Z,14.70
2022-08-28T23:53:30.998Z,14.72
2022-08-28T23:56:40.614Z,14.74
2022-08-28T23:59:45.892Z,14.77
